Time;durP1;ratioP1;P1;durP2;ratioP2;P2;SDS_P1;SDS_P2;PMS_P1;PMS_P2;Temp;Humidity;BMP_temperature;BMP_pressure;BME280_temperature;BME280_humidity;BME280_pressure;Samples;Min_cycle;Max_cycle;Signal;HPM_P1;HPM_P2
2020/12/26 05:00:24;;;;;;;1999.90;999.90;;;2.50;99.90;;;;;;5968459;23;20180;-76
2020/12/26 05:02:55;;;;;;;1999.90;999.90;;;2.40;99.90;;;;;;4994134;28;20211;-76
2020/12/26 05:05:23;;;;;;;1999.90;999.90;;;2.40;99.90;;;;;;4994178;28;20208;-76
2020/12/26 05:07:49;;;;;;;1999.90;999.90;;;2.20;99.90;;;;;;4993197;28;20258;-77
2020/12/26 05:10:16;;;;;;;1999.90;999.90;;;2.20;99.90;;;;;;4993953;28;20208;-76
2020/12/26 05:12:43;;;;;;;1999.90;999.90;;;2.50;99.90;;;;;;4994287;28;20554;-76
2020/12/26 05:15:10;;;;;;;1999.90;999.90;;;2.30;99.90;;;;;;4994340;28;20203;-76
2020/12/26 05:17:38;;;;;;;1999.90;999.90;;;2.40;99.90;;;;;;4993648;28;20227;-76
2020/12/26 05:20:06;;;;;;;1999.90;999.90;;;2.20;99.90;;;;;;4993706;28;20208;-76
2020/12/26 05:22:34;;;;;;;1999.90;999.90;;;2.70;99.90;;;;;;4993723;28;20535;-76
2020/12/26 05:25:06;;;;;;;1999.90;999.90;;;2.60;99.90;;;;;;4993616;28;20348;-76
2020/12/26 05:27:33;;;;;;;1999.90;999.90;;;2.20;99.90;;;;;;4993846;28;20203;-76
2020/12/26 05:30:01;;;;;;;1999.90;999.90;;;2.10;99.90;;;;;;4993239;28;20716;-77
2020/12/26 05:32:28;;;;;;;1999.90;999.90;;;2.10;99.90;;;;;;4993604;28;20643;-76
2020/12/26 05:35:04;;;;;;;1999.90;999.90;;;2.10;99.90;;;;;;4993569;28;20251;-76
2020/12/26 05:37:31;;;;;;;1999.90;999.90;;;2.10;99.90;;;;;;4993262;28;20219;-76
2020/12/26 05:40:00;;;;;;;1999.90;999.90;;;2.60;99.90;;;;;;4993501;28;20215;-76
2020/12/26 05:42:28;;;;;;;1999.90;999.90;;;2.00;99.90;;;;;;4993463;28;20230;-76
2020/12/26 05:45:04;;;;;;;1999.90;999.90;;;2.00;99.90;;;;;;4993463;28;20626;-76
2020/12/26 05:47:31;;;;;;;1999.90;999.90;;;2.00;99.90;;;;;;4994968;28;20208;-76
2020/12/26 05:49:58;;;;;;;1999.90;999.90;;;1.90;99.90;;;;;;4992929;28;20661;-76
2020/12/26 05:52:30;;;;;;;1999.90;999.90;;;1.80;99.90;;;;;;4993342;28;20223;-76
2020/12/26 05:54:57;;;;;;;1999.90;999.90;;;1.80;99.90;;;;;;4990654;28;20247;-76
2020/12/26 05:57:23;;;;;;;1999.90;999.90;;;1.90;99.90;;;;;;4988334;28;20669;-76
2020/12/26 05:59:52;;;;;;;1999.90;999.90;;;1.70;99.90;;;;;;4992144;28;20282;-76
2020/12/26 06:02:27;;;;;;;1999.90;999.90;;;1.70;99.90;;;;;;4992556;28;20236;-76
2020/12/26 06:04:58;;;;;;;1999.90;999.90;;;1.60;99.90;;;;;;4992851;28;20207;-76
2020/12/26 06:07:28;;;;;;;1999.90;999.90;;;1.60;99.90;;;;;;4992825;28;20196;-76
2020/12/26 06:09:58;;;;;;;1999.90;999.90;;;1.50;99.90;;;;;;4992650;28;20204;-76
2020/12/26 06:12:26;;;;;;;1999.90;999.90;;;1.50;99.90;;;;;;4992528;28;20224;-75
2020/12/26 06:14:54;;;;;;;1999.90;999.90;;;1.40;99.90;;;;;;4992564;28;20916;-75
2020/12/26 06:17:26;;;;;;;1999.90;999.90;;;1.40;99.90;;;;;;4992313;28;20220;-75
2020/12/26 06:20:01;;;;;;;1999.90;999.90;;;1.40;99.90;;;;;;4992447;28;20278;-76
2020/12/26 06:22:46;;;;;;;1999.90;999.90;;;1.40;99.90;;;;;;4992726;28;20223;-76
2020/12/26 06:25:15;;;;;;;1999.90;999.90;;;1.40;99.90;;;;;;4992492;28;20230;-76
2020/12/26 06:27:57;;;;;;;1999.90;999.90;;;1.30;99.90;;;;;;4992611;28;20208;-76
2020/12/26 06:30:24;;;;;;;1999.90;999.90;;;1.30;99.90;;;;;;4992405;28;20200;-76
2020/12/26 06:32:52;;;;;;;1999.90;999.90;;;1.30;99.90;;;;;;4992466;28;20207;-78
2020/12/26 06:35:19;;;;;;;1999.90;999.90;;;1.30;99.90;;;;;;4992378;28;20203;-76
2020/12/26 06:37:47;;;;;;;1999.90;999.90;;;1.30;99.90;;;;;;4991956;28;20246;-76
2020/12/26 06:40:32;;;;;;;1999.90;999.90;;;1.30;99.90;;;;;;4992456;28;20247;-77
2020/12/26 06:42:59;;;;;;;1999.90;999.90;;;1.30;99.90;;;;;;4992227;28;20661;-77
2020/12/26 06:45:31;;;;;;;1999.90;999.90;;;1.30;99.90;;;;;;4992486;28;20207;-76
2020/12/26 06:47:57;;;;;;;1999.90;999.90;;;1.20;99.90;;;;;;4992124;28;20199;-76
2020/12/26 06:50:26;;;;;;;1999.90;999.90;;;1.20;99.90;;;;;;4992070;28;20251;-77
2020/12/26 06:52:55;;;;;;;1999.90;999.90;;;1.20;99.90;;;;;;4992352;28;20208;-76
2020/12/26 06:55:40;;;;;;;1999.90;999.90;;;1.20;99.90;;;;;;4992259;28;20258;-75
2020/12/26 06:58:11;;;;;;;1999.90;999.90;;;1.20;99.90;;;;;;4991867;28;20262;-76
2020/12/26 07:00:39;;;;;;;1999.90;999.90;;;1.10;99.90;;;;;;4991606;28;20240;-77
2020/12/26 07:03:20;;;;;;;1999.90;999.90;;;1.10;99.90;;;;;;4992537;28;20209;-77
2020/12/26 07:05:48;;;;;;;1999.90;999.90;;;1.10;99.90;;;;;;4981193;28;20618;-77
2020/12/26 07:08:25;;;;;;;1999.90;999.90;;;1.10;99.90;;;;;;4973118;28;20197;-77
2020/12/26 07:10:52;;;;;;;1999.90;999.90;;;1.10;99.90;;;;;;4974472;28;20259;-75
2020/12/26 07:13:41;;;;;;;1999.90;999.90;;;1.00;99.90;;;;;;4973276;28;20649;-80
2020/12/26 07:16:33;;;;;;;1999.90;999.90;;;1.00;99.90;;;;;;4975822;28;20208;-79
2020/12/26 07:19:22;;;;;;;1999.90;999.90;;;1.00;99.90;;;;;;4973768;28;20221;-76
2020/12/26 07:21:49;;;;;;;1999.90;999.90;;;1.00;99.90;;;;;;4974762;28;20710;-79
2020/12/26 07:24:17;;;;;;;1999.90;999.90;;;1.00;99.90;;;;;;4975515;28;20208;-78
2020/12/26 07:26:44;;;;;;;1999.90;999.90;;;1.00;99.90;;;;;;4972808;28;20212;-78
2020/12/26 07:29:22;;;;;;;1999.90;999.90;;;1.00;99.90;;;;;;4972924;28;20204;-77
2020/12/26 07:31:49;;;;;;;1999.90;999.90;;;1.00;99.90;;;;;;4976606;28;20772;-78
2020/12/26 07:34:35;;;;;;;1999.90;999.90;;;1.10;99.90;;;;;;4975961;28;20216;-75
2020/12/26 07:37:02;;;;;;;1999.90;999.90;;;1.10;99.90;;;;;;4981048;28;20204;-79
2020/12/26 07:39:30;;;;;;;1999.90;999.90;;;1.10;99.90;;;;;;4993371;28;20216;-76
2020/12/26 07:41:57;;;;;;;1999.90;999.90;;;1.10;99.90;;;;;;4993636;28;20706;-75
2020/12/26 07:44:28;;;;;;;1999.90;999.90;;;1.20;99.90;;;;;;4994390;28;20204;-78
2020/12/26 07:46:56;;;;;;;1999.90;999.90;;;1.20;99.90;;;;;;4995495;28;20195;-75
2020/12/26 07:49:24;;;;;;;1999.90;999.90;;;1.20;99.90;;;;;;4994203;28;20628;-75
2020/12/26 07:52:02;;;;;;;1999.90;999.90;;;1.10;99.90;;;;;;4994029;28;20595;-75
2020/12/26 07:54:29;;;;;;;1999.90;999.90;;;1.20;99.90;;;;;;4992146;28;20254;-78
2020/12/26 07:56:56;;;;;;;1999.90;999.90;;;1.20;99.90;;;;;;4995042;28;20266;-77
2020/12/26 07:59:24;;;;;;;1999.90;999.90;;;1.20;99.90;;;;;;4994787;28;20263;-77
2020/12/26 08:01:51;;;;;;;1999.90;999.90;;;1.20;99.90;;;;;;4996202;28;20228;-78
2020/12/26 08:04:18;;;;;;;1999.90;999.90;;;1.30;99.90;;;;;;4995924;28;20618;-78
2020/12/26 08:06:47;;;;;;;1999.90;999.90;;;1.30;99.90;;;;;;5002583;28;20204;-77
2020/12/26 08:09:14;;;;;;;1999.90;999.90;;;1.30;99.90;;;;;;4998248;28;20717;-78
2020/12/26 08:11:42;;;;;;;1999.90;999.90;;;1.30;99.90;;;;;;4996990;28;20219;-77
2020/12/26 08:14:10;;;;;;;1999.90;999.90;;;1.40;99.90;;;;;;4996064;28;20203;-78
2020/12/26 08:16:37;;;;;;;1999.90;999.90;;;1.40;99.90;;;;;;4995564;28;20611;-75
2020/12/26 08:19:05;;;;;;;1999.90;999.90;;;1.50;99.90;;;;;;4995553;28;20224;-77
2020/12/26 08:21:32;;;;;;;1999.90;999.90;;;1.60;99.90;;;;;;4997376;28;20231;-75
2020/12/26 08:24:00;;;;;;;1999.90;999.90;;;1.50;99.90;;;;;;4996954;28;20200;-78
2020/12/26 08:26:30;;;;;;;1999.90;999.90;;;1.50;99.90;;;;;;4997902;28;20196;-79
2020/12/26 08:29:00;;;;;;;1999.90;999.90;;;1.60;99.90;;;;;;4998259;28;20197;-79
2020/12/26 08:31:29;;;;;;;1999.90;999.90;;;1.60;99.90;;;;;;4997875;28;20219;-79
2020/12/26 08:34:02;;;;;;;1999.90;999.90;;;1.60;99.90;;;;;;4996695;28;20618;-76
2020/12/26 08:36:35;;;;;;;1999.90;999.90;;;1.60;99.90;;;;;;4994602;28;20199;-74
2020/12/26 08:39:04;;;;;;;1999.90;999.90;;;1.60;99.90;;;;;;4994359;28;20216;-78
2020/12/26 08:41:40;;;;;;;1999.90;999.90;;;1.70;99.90;;;;;;4992857;28;20220;-78
2020/12/26 08:44:10;;;;;;;1999.90;999.90;;;1.70;99.90;;;;;;4994225;28;20630;-79
2020/12/26 08:46:43;;;;;;;1999.90;999.90;;;1.80;99.90;;;;;;4994684;28;20654;-76
2020/12/26 08:49:10;;;;;;;1999.90;999.90;;;1.80;99.90;;;;;;4993746;28;20254;-75
2020/12/26 08:51:41;;;;;;;1999.90;999.90;;;1.80;99.90;;;;;;4993992;28;20215;-76
2020/12/26 08:54:18;;;;;;;1999.90;999.90;;;1.80;99.90;;;;;;4993580;28;20262;-76
2020/12/26 08:56:45;;;;;;;1999.90;999.90;;;2.00;99.90;;;;;;4993980;28;20247;-76
2020/12/26 08:59:13;;;;;;;1999.90;999.90;;;2.00;99.90;;;;;;4990994;28;20250;-75
2020/12/26 09:01:40;;;;;;;1999.90;999.90;;;2.10;99.90;;;;;;4993197;28;20712;-75
2020/12/26 09:04:15;;;;;;;1999.90;999.90;;;2.20;99.90;;;;;;4994268;28;20211;-75
2020/12/26 09:06:42;;;;;;;1999.90;999.90;;;2.30;99.90;;;;;;4994396;28;20669;-74
2020/12/26 09:09:14;;;;;;;1999.90;999.90;;;2.50;99.90;;;;;;4993881;28;20661;-75
2020/12/26 09:11:41;;;;;;;1999.90;999.90;;;2.60;99.90;;;;;;4993728;28;20224;-76
2020/12/26 09:14:16;;;;;;;1999.90;999.90;;;2.80;99.90;;;;;;4993613;28;20207;-76
2020/12/26 09:16:43;;;;;;;1999.90;999.90;;;2.60;99.90;;;;;;4993975;28;20210;-76
2020/12/26 09:19:10;;;;;;;1999.90;999.90;;;2.70;99.90;;;;;;4991895;28;20227;-75
2020/12/26 09:21:36;;;;;;;1999.90;999.90;;;2.80;99.90;;;;;;4993846;28;20283;-75
2020/12/26 09:24:15;;;;;;;1999.90;999.90;;;2.80;99.90;;;;;;4993557;28;20267;-75
2020/12/26 09:26:42;;;;;;;1999.90;999.90;;;2.80;99.90;;;;;;4993269;28;20211;-75
2020/12/26 09:29:09;;;;;;;1999.90;999.90;;;2.80;99.90;;;;;;4993365;28;20290;-76
2020/12/26 09:31:38;;;;;;;1999.90;999.90;;;2.90;99.90;;;;;;4993525;28;20604;-75
2020/12/26 09:34:14;;;;;;;1999.90;999.90;;;2.90;99.90;;;;;;4993561;28;20204;-75
2020/12/26 09:36:41;;;;;;;1999.90;999.90;;;2.80;99.90;;;;;;4993497;28;20203;-75
2020/12/26 09:39:08;;;;;;;1999.90;999.90;;;2.80;99.90;;;;;;4992852;28;20390;-75
2020/12/26 09:41:43;;;;;;;1999.90;999.90;;;2.90;99.90;;;;;;4993451;28;20286;-75
2020/12/26 09:44:11;;;;;;;1999.90;999.90;;;2.80;99.90;;;;;;4993388;28;20211;-75
2020/12/26 09:46:39;;;;;;;1999.90;999.90;;;2.90;99.90;;;;;;4996945;28;20799;-75
2020/12/26 09:49:06;;;;;;;1999.90;999.90;;;2.90;99.90;;;;;;4987768;28;20200;-79
2020/12/26 09:51:33;;;;;;;1999.90;999.90;;;2.90;99.90;;;;;;5001032;28;20227;-78
2020/12/26 09:53:59;;;;;;;1999.90;999.90;;;2.90;99.90;;;;;;4996386;28;20211;-79
2020/12/26 09:56:26;;;;;;;1999.90;999.90;;;2.90;99.90;;;;;;4995048;28;20212;-75
2020/12/26 09:58:53;;;;;;;1999.90;999.90;;;2.90;99.90;;;;;;4992516;28;20641;-75
2020/12/26 10:01:21;;;;;;;1999.90;999.90;;;2.80;99.90;;;;;;4992733;28;20302;-76
2020/12/26 10:03:50;;;;;;;1999.90;999.90;;;2.80;99.90;;;;;;4980781;28;20262;-75
2020/12/26 10:06:18;;;;;;;1999.90;999.90;;;2.90;99.90;;;;;;4991781;28;20254;-75
2020/12/26 10:08:47;;;;;;;1999.90;999.90;;;3.00;99.90;;;;;;4991530;28;20497;-77
2020/12/26 10:11:15;;;;;;;1999.90;999.90;;;3.20;99.90;;;;;;4988711;28;20220;-76
2020/12/26 10:13:42;;;;;;;1999.90;999.90;;;3.40;99.90;;;;;;4992095;28;20262;-75
2020/12/26 10:16:10;;;;;;;1999.90;999.90;;;3.60;99.90;;;;;;4991898;28;20204;-74
2020/12/26 10:18:37;;;;;;;1999.90;999.90;;;3.70;99.90;;;;;;4991778;28;20224;-75
2020/12/26 10:21:05;;;;;;;1999.90;999.90;;;3.80;99.90;;;;;;4992768;28;20246;-80
2020/12/26 10:23:32;;;;;;;1999.90;999.90;;;3.80;99.90;;;;;;4993729;28;20200;-76
2020/12/26 10:26:04;;;;;;;1999.90;999.90;;;3.70;99.90;;;;;;4993366;28;20550;-78
2020/12/26 10:28:31;;;;;;;1999.90;999.90;;;3.50;99.90;;;;;;4991840;28;20200;-75
2020/12/26 10:30:59;;;;;;;1999.90;999.90;;;3.70;99.90;;;;;;4990194;28;20216;-77
2020/12/26 10:33:26;;;;;;;1999.90;999.90;;;3.70;99.90;;;;;;4992892;28;20665;-75
2020/12/26 10:35:52;;;;;;;1999.90;999.90;;;3.70;99.90;;;;;;4992331;28;20204;-75
2020/12/26 10:38:20;;;;;;;1999.90;999.90;;;3.70;99.90;;;;;;4992653;28;20685;-78
2020/12/26 10:40:47;;;;;;;1999.90;999.90;;;3.80;99.90;;;;;;4996276;28;20692;-77
2020/12/26 10:43:15;;;;;;;1999.90;999.90;;;3.80;99.90;;;;;;4994939;28;20238;-78
2020/12/26 10:45:42;;;;;;;1999.90;999.90;;;3.80;99.90;;;;;;4992704;28;20208;-81
2020/12/26 10:48:09;;;;;;;1999.90;999.90;;;4.00;99.90;;;;;;4994291;28;20204;-78
2020/12/26 10:50:35;;;;;;;1999.90;999.90;;;3.90;99.90;;;;;;4993180;28;20267;-79
2020/12/26 10:53:02;;;;;;;1999.90;999.90;;;4.10;99.90;;;;;;4993641;28;20200;-78
2020/12/26 10:55:30;;;;;;;1999.90;999.90;;;4.00;99.90;;;;;;5002027;28;20720;-80
2020/12/26 10:57:57;;;;;;;1999.90;999.90;;;4.00;99.90;;;;;;5003040;28;20263;-80
2020/12/26 11:00:27;;;;;;;1999.90;999.90;;;4.10;99.90;;;;;;5005330;28;20201;-79
2020/12/26 11:02:54;;;;;;;1999.90;999.90;;;4.00;99.90;;;;;;4998057;28;20196;-81
2020/12/26 11:05:21;;;;;;;1999.90;999.90;;;3.90;99.90;;;;;;4998844;28;20196;-80
2020/12/26 11:07:49;;;;;;;1999.90;999.90;;;3.90;99.90;;;;;;5001710;28;20200;-80
2020/12/26 11:10:16;;;;;;;1999.90;999.90;;;3.80;99.90;;;;;;5002110;28;20619;-80
2020/12/26 11:12:44;;;;;;;1999.90;999.90;;;3.70;99.90;;;;;;5004074;28;20204;-75
2020/12/26 11:15:11;;;;;;;1999.90;999.90;;;3.70;99.90;;;;;;4995705;28;20196;-75
2020/12/26 11:17:38;;;;;;;1999.90;999.90;;;3.70;99.90;;;;;;4993754;28;20731;-77
2020/12/26 11:20:04;;;;;;;1999.90;999.90;;;3.80;99.90;;;;;;4992128;28;20218;-75
2020/12/26 11:22:31;;;;;;;1999.90;999.90;;;4.10;99.90;;;;;;4994492;28;20224;-77
2020/12/26 11:24:58;;;;;;;1999.90;999.90;;;4.20;99.90;;;;;;4995278;28;20553;-76
2020/12/26 11:27:25;;;;;;;1999.90;999.90;;;4.30;99.90;;;;;;4994723;28;20200;-75
2020/12/26 11:29:53;;;;;;;1999.90;999.90;;;4.30;99.90;;;;;;4994982;28;20200;-77
2020/12/26 11:32:20;;;;;;;1999.90;999.90;;;4.30;99.90;;;;;;4994937;28;20763;-75
2020/12/26 11:34:47;;;;;;;1999.90;999.90;;;4.20;99.90;;;;;;4995038;28;20259;-75
2020/12/26 11:37:14;;;;;;;1999.90;999.90;;;4.20;99.90;;;;;;4994644;28;20255;-76
2020/12/26 11:39:41;;;;;;;1999.90;999.90;;;4.30;99.90;;;;;;4995167;28;20295;-74
2020/12/26 11:42:09;;;;;;;1999.90;999.90;;;4.40;99.90;;;;;;4992953;28;20282;-75
2020/12/26 11:44:36;;;;;;;1999.90;999.90;;;4.40;99.90;;;;;;4994918;28;20255;-75
2020/12/26 11:47:03;;;;;;;1999.90;999.90;;;4.50;99.90;;;;;;4996201;28;20200;-79
2020/12/26 11:49:30;;;;;;;1999.90;999.90;;;4.50;99.90;;;;;;4995177;28;20223;-79
2020/12/26 11:51:57;;;;;;;1999.90;999.90;;;4.50;99.90;;;;;;4996374;28;20224;-78
2020/12/26 11:54:24;;;;;;;1999.90;999.90;;;4.30;99.90;;;;;;4995616;28;20200;-78
2020/12/26 11:56:52;;;;;;;1999.90;999.90;;;4.30;99.90;;;;;;4999331;28;20722;-80
2020/12/26 11:59:19;;;;;;;1999.90;999.90;;;4.20;99.90;;;;;;4998959;28;20227;-80
2020/12/26 12:01:46;;;;;;;1999.90;999.90;;;4.40;99.90;;;;;;4999476;28;20224;-79
2020/12/26 12:04:14;;;;;;;1999.90;999.90;;;4.30;99.90;;;;;;4998141;28;20235;-78
2020/12/26 12:06:41;;;;;;;1999.90;999.90;;;4.30;99.90;;;;;;4999205;28;20278;-78
2020/12/26 12:09:07;;;;;;;1999.90;999.90;;;4.40;99.90;;;;;;4994998;28;20192;-79
2020/12/26 12:11:34;;;;;;;1999.90;999.90;;;4.50;99.90;;;;;;4998506;28;20223;-79
2020/12/26 12:14:01;;;;;;;1999.90;999.90;;;4.60;99.90;;;;;;4999134;28;20234;-79
2020/12/26 12:16:28;;;;;;;1999.90;999.90;;;4.60;99.90;;;;;;5004250;28;20274;-80
2020/12/26 12:18:55;;;;;;;1999.90;999.90;;;4.70;99.90;;;;;;5003429;28;20220;-79
2020/12/26 12:21:23;;;;;;;1999.90;999.90;;;4.90;99.90;;;;;;5000859;28;20232;-78
2020/12/26 12:23:50;;;;;;;1999.90;999.90;;;4.80;99.90;;;;;;5019260;28;20226;-79
2020/12/26 12:26:21;;;;;;;1999.90;999.90;;;4.70;99.90;;;;;;5018122;28;20261;-78
2020/12/26 12:28:48;;;;;;;1999.90;999.90;;;4.90;99.90;;;;;;5020227;28;20200;-78
2020/12/26 12:31:15;;;;;;;1999.90;999.90;;;4.70;99.90;;;;;;5021686;28;20219;-79
2020/12/26 12:33:42;;;;;;;1999.90;999.90;;;4.60;99.90;;;;;;5017950;28;20203;-79
2020/12/26 12:36:09;;;;;;;1999.90;999.90;;;4.40;99.90;;;;;;5025069;28;20270;-79
2020/12/26 12:38:36;;;;;;;1999.90;999.90;;;4.40;99.90;;;;;;5018497;28;20224;-79
2020/12/26 12:41:03;;;;;;;1999.90;999.90;;;4.20;99.90;;;;;;5015971;28;20588;-78
2020/12/26 12:43:30;;;;;;;1999.90;999.90;;;4.30;99.90;;;;;;5024196;28;20250;-79
2020/12/26 12:45:57;;;;;;;1999.90;999.90;;;4.20;99.90;;;;;;5018372;28;20230;-78
2020/12/26 12:48:24;;;;;;;1999.90;999.90;;;4.20;99.90;;;;;;5017198;28;20199;-79
2020/12/26 12:50:51;;;;;;;1999.90;999.90;;;4.10;99.90;;;;;;5017674;28;20587;-77
2020/12/26 12:53:18;;;;;;;1999.90;999.90;;;4.20;99.90;;;;;;5019448;28;20204;-79
2020/12/26 12:55:47;;;;;;;1999.90;999.90;;;4.20;99.90;;;;;;5017343;28;20200;-78
2020/12/26 12:58:14;;;;;;;1999.90;999.90;;;4.20;99.90;;;;;;5014387;28;20207;-76
2020/12/26 13:00:41;;;;;;;1999.90;999.90;;;4.20;99.90;;;;;;5013643;28;20261;-76
2020/12/26 13:03:07;;;;;;;1999.90;999.90;;;4.10;99.90;;;;;;5013606;28;20300;-76
2020/12/26 13:05:35;;;;;;;1999.90;999.90;;;4.20;99.90;;;;;;5013454;28;20253;-76
2020/12/26 13:08:03;;;;;;;1999.90;999.90;;;4.20;99.90;;;;;;5013487;28;20202;-75
2020/12/26 13:10:30;;;;;;;1999.90;999.90;;;4.30;99.90;;;;;;5013510;28;20199;-75
2020/12/26 13:12:58;;;;;;;1999.90;999.90;;;4.20;99.90;;;;;;5013601;28;20207;-75
2020/12/26 13:15:25;;;;;;;1999.90;999.90;;;4.30;99.90;;;;;;5013433;28;20203;-75
2020/12/26 13:17:52;;;;;;;1999.90;999.90;;;4.30;99.90;;;;;;4995324;28;20205;-77
2020/12/26 13:20:19;;;;;;;1999.90;999.90;;;4.30;99.90;;;;;;4994488;28;20659;-75
2020/12/26 13:22:46;;;;;;;1999.90;999.90;;;4.50;99.90;;;;;;4993731;28;20208;-74
2020/12/26 13:25:13;;;;;;;1999.90;999.90;;;4.60;99.90;;;;;;4993635;28;20212;-74
2020/12/26 13:27:48;;;;;;;1999.90;999.90;;;4.60;99.90;;;;;;4992452;28;20211;-75
2020/12/26 13:30:16;;;;;;;1999.90;999.90;;;4.50;99.90;;;;;;4993874;28;20628;-77
2020/12/26 13:32:43;;;;;;;1999.90;999.90;;;4.40;99.90;;;;;;4994328;28;20274;-77
2020/12/26 13:35:10;;;;;;;1999.90;999.90;;;4.40;99.90;;;;;;4996519;28;20204;-76
2020/12/26 13:37:37;;;;;;;1999.90;999.90;;;4.40;99.90;;;;;;4995500;28;20200;-77
2020/12/26 13:40:05;;;;;;;1999.90;999.90;;;4.40;99.90;;;;;;4994339;28;20227;-76
2020/12/26 13:42:32;;;;;;;1999.90;999.90;;;4.40;99.90;;;;;;4992972;28;20298;-76
2020/12/26 13:44:59;;;;;;;1999.90;999.90;;;4.40;99.90;;;;;;4992341;28;20255;-76
2020/12/26 13:47:27;;;;;;;1999.90;999.90;;;4.40;99.90;;;;;;4992747;28;20200;-76
2020/12/26 13:49:54;;;;;;;1999.90;999.90;;;4.30;99.90;;;;;;4992618;28;20254;-76
2020/12/26 13:52:21;;;;;;;1999.90;999.90;;;4.50;99.90;;;;;;4988228;28;20371;-77
2020/12/26 13:54:48;;;;;;;1999.90;999.90;;;4.40;99.90;;;;;;4991970;28;20724;-76
2020/12/26 13:57:14;;;;;;;1999.90;999.90;;;4.30;99.90;;;;;;4992474;28;20669;-75
2020/12/26 13:59:41;;;;;;;1999.90;999.90;;;4.30;99.90;;;;;;4992492;28;20216;-78
2020/12/26 14:02:08;;;;;;;1999.90;999.90;;;4.30;99.90;;;;;;4992606;28;20299;-75
2020/12/26 14:04:36;;;;;;;1999.90;999.90;;;4.30;99.90;;;;;;4993029;28;20208;-75
2020/12/26 14:07:07;;;;;;;1999.90;999.90;;;4.30;99.90;;;;;;4992920;28;20212;-75
2020/12/26 14:09:35;;;;;;;1999.90;999.90;;;4.30;99.90;;;;;;4992545;28;20204;-77
2020/12/26 14:12:02;;;;;;;1999.90;999.90;;;4.30;99.90;;;;;;4992719;28;20767;-77
2020/12/26 14:14:32;;;;;;;1999.90;999.90;;;4.40;99.90;;;;;;4992429;28;20228;-76
2020/12/26 14:16:59;;;;;;;1999.90;999.90;;;4.20;99.90;;;;;;4992249;28;20716;-77
2020/12/26 14:19:26;;;;;;;1999.90;999.90;;;4.30;99.90;;;;;;4989520;28;20640;-76
2020/12/26 14:21:53;;;;;;;1999.90;999.90;;;4.00;99.90;;;;;;4989037;28;20274;-77
2020/12/26 14:24:20;;;;;;;1999.90;999.90;;;4.10;99.90;;;;;;4989299;28;20475;-77
2020/12/26 14:26:47;;;;;;;1999.90;999.90;;;4.20;99.90;;;;;;4989450;28;20199;-76
2020/12/26 14:29:14;;;;;;;1999.90;999.90;;;4.10;99.90;;;;;;4989287;28;20258;-77
2020/12/26 14:31:40;;;;;;;1999.90;999.90;;;4.10;99.90;;;;;;4990241;28;20232;-77
2020/12/26 14:34:08;;;;;;;1999.90;999.90;;;4.00;99.90;;;;;;4990477;28;20254;-77
2020/12/26 14:36:35;;;;;;;1999.90;999.90;;;4.00;99.90;;;;;;4991661;28;20661;-76
2020/12/26 14:39:03;;;;;;;1999.90;999.90;;;4.00;99.90;;;;;;4992047;28;20647;-76
2020/12/26 14:41:29;;;;;;;1999.90;999.90;;;4.00;99.90;;;;;;4991861;28;20223;-76
2020/12/26 14:43:56;;;;;;;1999.90;999.90;;;4.10;99.90;;;;;;4992347;28;20662;-75
2020/12/26 14:46:23;;;;;;;1999.90;999.90;;;3.90;99.90;;;;;;4992661;28;20258;-76
2020/12/26 14:48:51;;;;;;;1999.90;999.90;;;3.90;99.90;;;;;;4992324;28;20200;-76
2020/12/26 14:51:18;;;;;;;1999.90;999.90;;;3.90;99.90;;;;;;4992425;28;20227;-76
2020/12/26 14:53:48;;;;;;;1999.90;999.90;;;3.90;99.90;;;;;;4992198;28;20623;-76
2020/12/26 14:56:17;;;;;;;1999.90;999.90;;;3.90;99.90;;;;;;4992545;28;20207;-76
2020/12/26 14:58:46;;;;;;;1999.90;999.90;;;3.90;99.90;;;;;;4992273;28;20240;-76
2020/12/26 15:01:13;;;;;;;1999.90;999.90;;;4.10;99.90;;;;;;4992156;28;20236;-76
2020/12/26 15:03:40;;;;;;;1999.90;999.90;;;4.10;99.90;;;;;;4992364;28;20250;-76
2020/12/26 15:06:07;;;;;;;1999.90;999.90;;;3.80;99.90;;;;;;4992058;28;20758;-76
2020/12/26 15:08:34;;;;;;;1999.90;999.90;;;3.80;99.90;;;;;;4992015;28;20215;-76
2020/12/26 15:11:01;;;;;;;1999.90;999.90;;;4.00;99.90;;;;;;4992314;28;20275;-76
2020/12/26 15:13:29;;;;;;;1999.90;999.90;;;3.80;99.90;;;;;;4992397;28;20624;-76
2020/12/26 15:15:55;;;;;;;1999.90;999.90;;;3.80;99.90;;;;;;4992137;28;20204;-75
2020/12/26 15:18:23;;;;;;;1999.90;999.90;;;3.70;99.90;;;;;;4992094;28;20239;-76
2020/12/26 15:20:50;;;;;;;1999.90;999.90;;;3.70;99.90;;;;;;4991881;28;20228;-76
2020/12/26 15:23:16;;;;;;;1999.90;999.90;;;3.50;99.90;;;;;;4992047;28;20204;-75
2020/12/26 15:25:43;;;;;;;1999.90;999.90;;;3.60;99.90;;;;;;4992291;28;20282;-76
2020/12/26 15:28:10;;;;;;;1999.90;999.90;;;3.50;99.90;;;;;;4992027;28;20266;-76
2020/12/26 15:30:38;;;;;;;1999.90;999.90;;;3.50;99.90;;;;;;4991951;28;20220;-76
2020/12/26 15:33:05;;;;;;;1999.90;999.90;;;3.50;99.90;;;;;;4992049;28;20207;-76
2020/12/26 15:35:34;;;;;;;1999.90;999.90;;;3.50;99.90;;;;;;4991846;28;20204;-76
2020/12/26 15:38:01;;;;;;;1999.90;999.90;;;3.50;99.90;;;;;;4992088;28;20204;-76
2020/12/26 15:40:28;;;;;;;1999.90;999.90;;;3.50;99.90;;;;;;4991958;28;20224;-76
2020/12/26 15:42:55;;;;;;;1999.90;999.90;;;3.40;99.90;;;;;;4992007;28;20204;-76
2020/12/26 15:45:22;;;;;;;1999.90;999.90;;;3.40;99.90;;;;;;4991947;28;20208;-76
2020/12/26 15:47:50;;;;;;;1999.90;999.90;;;3.50;99.90;;;;;;4991727;28;20200;-76
2020/12/26 15:50:17;;;;;;;1999.90;999.90;;;3.50;99.90;;;;;;4991753;28;20684;-76
2020/12/26 15:52:43;;;;;;;1999.90;999.90;;;3.50;99.90;;;;;;4994905;28;20282;-76
2020/12/26 15:55:10;;;;;;;1999.90;999.90;;;3.60;99.90;;;;;;4995262;28;20204;-75
2020/12/26 15:57:37;;;;;;;1999.90;999.90;;;3.60;99.90;;;;;;4995299;28;20239;-76
2020/12/26 16:00:05;;;;;;;1999.90;999.90;;;3.70;99.90;;;;;;4995077;28;20228;-75
2020/12/26 16:02:32;;;;;;;1999.90;999.90;;;3.60;99.90;;;;;;4995024;28;20236;-75
2020/12/26 16:05:00;;;;;;;1999.90;999.90;;;3.50;99.90;;;;;;4995303;28;20290;-76
2020/12/26 16:07:27;;;;;;;1999.90;999.90;;;3.70;99.90;;;;;;4995241;28;20208;-77
2020/12/26 16:09:54;;;;;;;1999.90;999.90;;;3.70;99.90;;;;;;4994927;28;20200;-75
2020/12/26 16:12:21;;;;;;;1999.90;999.90;;;3.50;99.90;;;;;;4995013;28;20224;-75
2020/12/26 16:14:48;;;;;;;1999.90;999.90;;;3.50;99.90;;;;;;4994998;28;20250;-76
2020/12/26 16:17:16;;;;;;;1999.90;999.90;;;3.60;99.90;;;;;;4994685;28;20211;-76
2020/12/26 16:19:43;;;;;;;1999.90;999.90;;;3.50;99.90;;;;;;4994911;28;20231;-75
2020/12/26 16:22:11;;;;;;;1999.90;999.90;;;3.60;99.90;;;;;;4994619;28;20247;-76
2020/12/26 16:24:37;;;;;;;1999.90;999.90;;;3.40;99.90;;;;;;4994663;28;20669;-76
2020/12/26 16:27:06;;;;;;;1999.90;999.90;;;3.40;99.90;;;;;;4994492;28;20270;-75
2020/12/26 16:29:43;;;;;;;1999.90;999.90;;;3.30;99.90;;;;;;4994403;28;20196;-75
2020/12/26 16:32:09;;;;;;;1999.90;999.90;;;3.20;99.90;;;;;;4994746;28;20659;-75
2020/12/26 16:34:37;;;;;;;1999.90;999.90;;;3.10;99.90;;;;;;4994681;28;20239;-76
2020/12/26 16:37:06;;;;;;;1999.90;999.90;;;3.10;99.90;;;;;;4994526;28;20208;-75
2020/12/26 16:39:34;;;;;;;1999.90;999.90;;;3.10;99.90;;;;;;4994166;28;20271;-75
2020/12/26 16:42:01;;;;;;;1999.90;999.90;;;3.10;99.90;;;;;;4994214;28;20251;-76
2020/12/26 16:44:28;;;;;;;1999.90;999.90;;;3.20;99.90;;;;;;4994771;28;20254;-76
2020/12/26 16:46:55;;;;;;;1999.90;999.90;;;3.10;99.90;;;;;;4994471;28;20567;-75
2020/12/26 16:49:22;;;;;;;1999.90;999.90;;;3.00;99.90;;;;;;4994278;28;20200;-76
2020/12/26 16:51:51;;;;;;;1999.90;999.90;;;2.90;99.90;;;;;;4994425;28;20647;-76
2020/12/26 16:54:18;;;;;;;1999.90;999.90;;;3.00;99.90;;;;;;4994207;28;20675;-75
2020/12/26 16:56:45;;;;;;;1999.90;999.90;;;3.00;99.90;;;;;;4994055;28;20633;-76
2020/12/26 16:59:12;;;;;;;1999.90;999.90;;;2.90;99.90;;;;;;4993986;28;20227;-76
2020/12/26 17:01:39;;;;;;;1999.90;999.90;;;2.90;99.90;;;;;;4993721;28;20720;-75
2020/12/26 17:04:06;;;;;;;1999.90;999.90;;;3.00;99.90;;;;;;4993070;28;20274;-75
2020/12/26 17:06:33;;;;;;;1999.90;999.90;;;3.10;99.90;;;;;;4993878;28;20250;-76
2020/12/26 17:08:59;;;;;;;1999.90;999.90;;;2.90;99.90;;;;;;4993735;28;20254;-75
2020/12/26 17:11:31;;;;;;;1999.90;999.90;;;2.80;99.90;;;;;;4993619;28;20873;-75
2020/12/26 17:13:59;;;;;;;1999.90;999.90;;;2.80;99.90;;;;;;4993767;28;20231;-75